sensor_id;sensor_type;location;lat;lon;timestamp;pressure;altitude;pressure_sealevel;temperature;humidity
60267;BME280;46125;61.360;-149.532;2023-07-31T00:00:30;100009.84;;;20.15;60.76
60267;BME280;46125;61.360;-149.532;2023-07-31T00:02:59;100006.76;;;19.93;59.95
60267;BME280;46125;61.360;-149.532;2023-07-31T00:05:27;100006.80;;;21.17;58.99
60267;BME280;46125;61.360;-149.532;2023-07-31T00:07:56;100005.53;;;20.70;58.18
60267;BME280;46125;61.360;-149.532;2023-07-31T00:10:24;100007.28;;;20.88;60.57
60267;BME280;46125;61.360;-149.532;2023-07-31T00:12:54;100006.55;;;21.54;57.28
60267;BME280;46125;61.360;-149.532;2023-07-31T00:15:22;100007.77;;;22.22;55.36
60267;BME280;46125;61.360;-149.532;2023-07-31T00:17:50;100004.16;;;21.96;57.67
60267;BME280;46125;61.360;-149.532;2023-07-31T00:20:19;100005.95;;;22.21;56.47
60267;BME280;46125;61.360;-149.532;2023-07-31T00:22:47;100002.63;;;20.55;59.71
60267;BME280;46125;61.360;-149.532;2023-07-31T00:25:16;100002.23;;;21.01;60.58
60267;BME280;46125;61.360;-149.532;2023-07-31T00:27:44;100001.86;;;21.60;56.45
60267;BME280;46125;61.360;-149.532;2023-07-31T00:30:13;100003.52;;;21.98;55.34
60267;BME280;46125;61.360;-149.532;2023-07-31T00:32:41;100002.48;;;21.17;57.20
60267;BME280;46125;61.360;-149.532;2023-07-31T00:35:10;100002.40;;;22.04;54.41
60267;BME280;46125;61.360;-149.532;2023-07-31T00:37:38;99999.33;;;20.09;56.39
60267;BME280;46125;61.360;-149.532;2023-07-31T00:40:08;100000.52;;;20.87;59.10
60267;BME280;46125;61.360;-149.532;2023-07-31T00:42:36;99999.51;;;22.61;54.73
60267;BME280;46125;61.360;-149.532;2023-07-31T00:45:06;100001.45;;;21.74;55.46
60267;BME280;46125;61.360;-149.532;2023-07-31T00:47:40;99998.15;;;20.99;57.22
60267;BME280;46125;61.360;-149.532;2023-07-31T00:50:08;99998.64;;;21.98;54.83
60267;BME280;46125;61.360;-149.532;2023-07-31T00:52:37;100000.31;;;21.71;56.15
60267;BME280;46125;61.360;-149.532;2023-07-31T00:55:07;99997.57;;;20.71;57.12
60267;BME280;46125;61.360;-149.532;2023-07-31T00:57:35;99995.74;;;22.29;55.12
60267;BME280;46125;61.360;-149.532;2023-07-31T01:00:05;99994.28;;;20.12;56.73
60267;BME280;46125;61.360;-149.532;2023-07-31T01:02:34;99994.94;;;22.48;54.22
60267;BME280;46125;61.360;-149.532;2023-07-31T01:05:02;99992.11;;;23.20;53.09
60267;BME280;46125;61.360;-149.532;2023-07-31T01:07:38;99995.33;;;23.61;53.52
60267;BME280;46125;61.360;-149.532;2023-07-31T01:10:14;99992.26;;;23.15;51.97
60267;BME280;46125;61.360;-149.532;2023-07-31T01:12:45;99991.78;;;22.29;54.65
60267;BME280;46125;61.360;-149.532;2023-07-31T01:15:17;99990.64;;;23.24;52.33
60267;BME280;46125;61.360;-149.532;2023-07-31T01:17:45;99992.32;;;23.55;51.66
60267;BME280;46125;61.360;-149.532;2023-07-31T01:20:17;99991.03;;;22.75;52.86
60267;BME280;46125;61.360;-149.532;2023-07-31T01:23:13;99991.61;;;22.95;54.16
60267;BME280;46125;61.360;-149.532;2023-07-31T01:25:57;99989.46;;;22.88;52.95
60267;BME280;46125;61.360;-149.532;2023-07-31T01:28:37;99987.42;;;22.59;54.06
60267;BME280;46125;61.360;-149.532;2023-07-31T01:31:11;99986.35;;;22.70;51.86
60267;BME280;46125;61.360;-149.532;2023-07-31T01:33:42;99983.47;;;22.37;54.44
60267;BME280;46125;61.360;-149.532;2023-07-31T01:36:11;99985.27;;;23.87;51.30
60267;BME280;46125;61.360;-149.532;2023-07-31T01:38:40;99980.93;;;22.74;51.25
60267;BME280;46125;61.360;-149.532;2023-07-31T01:41:13;99976.31;;;23.33;52.25
60267;BME280;46125;61.360;-149.532;2023-07-31T01:43:42;99977.78;;;22.65;51.71
60267;BME280;46125;61.360;-149.532;2023-07-31T01:46:10;99979.11;;;21.85;53.83
60267;BME280;46125;61.360;-149.532;2023-07-31T01:48:38;99978.27;;;22.37;51.27
60267;BME280;46125;61.360;-149.532;2023-07-31T01:51:07;99980.48;;;22.53;52.68
60267;BME280;46125;61.360;-149.532;2023-07-31T01:53:35;99977.66;;;22.37;52.01
60267;BME280;46125;61.360;-149.532;2023-07-31T01:56:04;99981.16;;;22.40;55.89
60267;BME280;46125;61.360;-149.532;2023-07-31T01:58:32;99982.11;;;22.78;51.03
60267;BME280;46125;61.360;-149.532;2023-07-31T02:01:01;99981.97;;;23.41;53.42
60267;BME280;46125;61.360;-149.532;2023-07-31T02:03:29;99980.21;;;23.67;52.28
60267;BME280;46125;61.360;-149.532;2023-07-31T02:05:58;99979.46;;;22.95;52.95
60267;BME280;46125;61.360;-149.532;2023-07-31T02:08:27;99974.17;;;21.36;57.21
60267;BME280;46125;61.360;-149.532;2023-07-31T02:10:55;99972.75;;;22.02;54.70
60267;BME280;46125;61.360;-149.532;2023-07-31T02:13:24;99972.42;;;22.51;56.04
60267;BME280;46125;61.360;-149.532;2023-07-31T02:15:53;99969.35;;;23.24;50.22
60267;BME280;46125;61.360;-149.532;2023-07-31T02:18:21;99967.66;;;22.64;50.52
60267;BME280;46125;61.360;-149.532;2023-07-31T02:20:50;99967.68;;;23.71;49.31
60267;BME280;46125;61.360;-149.532;2023-07-31T02:23:19;99966.39;;;24.14;51.96
60267;BME280;46125;61.360;-149.532;2023-07-31T02:25:48;99967.90;;;22.42;54.41
60267;BME280;46125;61.360;-149.532;2023-07-31T02:28:16;99967.21;;;23.05;54.16
60267;BME280;46125;61.360;-149.532;2023-07-31T02:30:45;99966.43;;;22.80;55.20
60267;BME280;46125;61.360;-149.532;2023-07-31T02:33:14;99961.64;;;23.09;50.26
60267;BME280;46125;61.360;-149.532;2023-07-31T02:35:43;99962.63;;;23.10;53.46
60267;BME280;46125;61.360;-149.532;2023-07-31T02:38:12;99961.46;;;23.55;51.41
60267;BME280;46125;61.360;-149.532;2023-07-31T02:40:40;99961.28;;;23.59;51.02
60267;BME280;46125;61.360;-149.532;2023-07-31T02:43:09;99962.29;;;22.66;52.16
60267;BME280;46125;61.360;-149.532;2023-07-31T02:45:37;99962.41;;;23.71;52.39
60267;BME280;46125;61.360;-149.532;2023-07-31T02:48:06;99960.39;;;23.34;50.53
60267;BME280;46125;61.360;-149.532;2023-07-31T02:50:34;99957.45;;;23.27;51.82
60267;BME280;46125;61.360;-149.532;2023-07-31T02:53:03;99955.86;;;23.27;52.21
60267;BME280;46125;61.360;-149.532;2023-07-31T02:55:31;99953.74;;;22.39;53.74
60267;BME280;46125;61.360;-149.532;2023-07-31T02:57:59;99953.12;;;23.48;48.84
60267;BME280;46125;61.360;-149.532;2023-07-31T03:00:28;99952.35;;;21.67;54.63
60267;BME280;46125;61.360;-149.532;2023-07-31T03:02:56;99948.65;;;21.76;50.37
60267;BME280;46125;61.360;-149.532;2023-07-31T03:05:25;99951.34;;;23.11;53.58
60267;BME280;46125;61.360;-149.532;2023-07-31T03:07:53;99949.35;;;23.10;51.32
60267;BME280;46125;61.360;-149.532;2023-07-31T03:10:22;99947.48;;;23.04;50.49
60267;BME280;46125;61.360;-149.532;2023-07-31T03:12:50;99941.66;;;22.42;55.66
60267;BME280;46125;61.360;-149.532;2023-07-31T03:15:24;99942.05;;;21.92;52.05
60267;BME280;46125;61.360;-149.532;2023-07-31T03:17:53;99934.85;;;20.93;55.68
60267;BME280;46125;61.360;-149.532;2023-07-31T03:20:22;99935.39;;;22.93;53.41
60267;BME280;46125;61.360;-149.532;2023-07-31T03:22:51;99933.16;;;23.09;52.53
60267;BME280;46125;61.360;-149.532;2023-07-31T03:25:19;99929.43;;;21.48;55.09
60267;BME280;46125;61.360;-149.532;2023-07-31T03:27:47;99930.64;;;23.16;53.15
60267;BME280;46125;61.360;-149.532;2023-07-31T03:30:15;99928.80;;;22.48;54.46
60267;BME280;46125;61.360;-149.532;2023-07-31T03:32:44;99929.93;;;22.94;53.56
60267;BME280;46125;61.360;-149.532;2023-07-31T03:35:12;99932.13;;;22.21;54.61
60267;BME280;46125;61.360;-149.532;2023-07-31T03:37:41;99930.19;;;22.87;52.58
60267;BME280;46125;61.360;-149.532;2023-07-31T03:40:10;99930.61;;;21.12;56.90
60267;BME280;46125;61.360;-149.532;2023-07-31T03:42:38;99931.62;;;22.22;54.08
60267;BME280;46125;61.360;-149.532;2023-07-31T03:45:08;99933.50;;;22.16;55.94
60267;BME280;46125;61.360;-149.532;2023-07-31T03:47:42;99929.97;;;21.73;56.01
60267;BME280;46125;61.360;-149.532;2023-07-31T03:50:11;99932.23;;;22.49;55.34
60267;BME280;46125;61.360;-149.532;2023-07-31T03:52:44;99932.29;;;22.04;56.09
60267;BME280;46125;61.360;-149.532;2023-07-31T03:55:12;99932.55;;;21.04;58.00
60267;BME280;46125;61.360;-149.532;2023-07-31T03:57:41;99933.68;;;20.79;59.26
60267;BME280;46125;61.360;-149.532;2023-07-31T04:00:10;99931.71;;;21.97;56.67
60267;BME280;46125;61.360;-149.532;2023-07-31T04:02:44;99935.20;;;21.81;55.77
60267;BME280;46125;61.360;-149.532;2023-07-31T04:05:13;99932.74;;;22.06;56.75
60267;BME280;46125;61.360;-149.532;2023-07-31T04:07:42;99933.64;;;22.10;55.08
60267;BME280;46125;61.360;-149.532;2023-07-31T04:10:10;99933.65;;;21.83;55.56
60267;BME280;46125;61.360;-149.532;2023-07-31T04:12:39;99936.86;;;21.19;57.34
60267;BME280;46125;61.360;-149.532;2023-07-31T04:15:27;99940.06;;;22.89;54.45
60267;BME280;46125;61.360;-149.532;2023-07-31T04:17:56;99936.12;;;21.90;55.75
60267;BME280;46125;61.360;-149.532;2023-07-31T04:20:25;99936.27;;;21.58;55.11
60267;BME280;46125;61.360;-149.532;2023-07-31T04:22:53;99937.08;;;22.17;54.12
60267;BME280;46125;61.360;-149.532;2023-07-31T04:25:22;99936.14;;;20.42;56.23
60267;BME280;46125;61.360;-149.532;2023-07-31T04:27:56;99935.00;;;21.28;54.45
60267;BME280;46125;61.360;-149.532;2023-07-31T04:30:29;99936.74;;;21.25;54.87
60267;BME280;46125;61.360;-149.532;2023-07-31T04:32:58;99937.68;;;22.28;53.28
60267;BME280;46125;61.360;-149.532;2023-07-31T04:35:26;99933.35;;;21.69;54.45
60267;BME280;46125;61.360;-149.532;2023-07-31T04:37:55;99937.39;;;22.44;52.93
60267;BME280;46125;61.360;-149.532;2023-07-31T04:40:23;99933.72;;;21.80;53.24
60267;BME280;46125;61.360;-149.532;2023-07-31T04:42:52;99939.53;;;22.32;52.51
60267;BME280;46125;61.360;-149.532;2023-07-31T04:45:20;99936.90;;;22.32;51.96
60267;BME280;46125;61.360;-149.532;2023-07-31T04:47:48;99935.66;;;21.76;53.91
60267;BME280;46125;61.360;-149.532;2023-07-31T04:50:17;99935.52;;;21.68;54.79
60267;BME280;46125;61.360;-149.532;2023-07-31T04:52:45;99939.32;;;22.26;53.44
60267;BME280;46125;61.360;-149.532;2023-07-31T04:55:14;99935.39;;;22.08;53.74
60267;BME280;46125;61.360;-149.532;2023-07-31T04:57:42;99938.64;;;21.31;55.21
60267;BME280;46125;61.360;-149.532;2023-07-31T05:00:11;99937.19;;;22.29;53.83
60267;BME280;46125;61.360;-149.532;2023-07-31T05:02:40;99938.89;;;22.04;53.43
60267;BME280;46125;61.360;-149.532;2023-07-31T05:05:09;99941.04;;;22.14;53.03
60267;BME280;46125;61.360;-149.532;2023-07-31T05:07:37;99943.87;;;22.13;52.61
60267;BME280;46125;61.360;-149.532;2023-07-31T05:10:06;99944.76;;;21.30;54.67
60267;BME280;46125;61.360;-149.532;2023-07-31T05:12:40;99941.96;;;22.03;53.03
60267;BME280;46125;61.360;-149.532;2023-07-31T05:15:09;99941.25;;;21.97;52.91
60267;BME280;46125;61.360;-149.532;2023-07-31T05:17:38;99937.96;;;21.76;53.71
60267;BME280;46125;61.360;-149.532;2023-07-31T05:20:08;99936.58;;;21.82;53.56
60267;BME280;46125;61.360;-149.532;2023-07-31T05:22:37;99937.22;;;22.14;53.63
60267;BME280;46125;61.360;-149.532;2023-07-31T05:25:06;99938.74;;;21.76;53.71
60267;BME280;46125;61.360;-149.532;2023-07-31T05:27:35;99938.84;;;21.71;53.80
60267;BME280;46125;61.360;-149.532;2023-07-31T05:30:09;99940.32;;;21.81;53.26
60267;BME280;46125;61.360;-149.532;2023-07-31T05:32:47;99940.42;;;21.50;53.87
60267;BME280;46125;61.360;-149.532;2023-07-31T05:35:15;99938.74;;;21.60;53.52
60267;BME280;46125;61.360;-149.532;2023-07-31T05:37:43;99941.53;;;22.17;53.34
60267;BME280;46125;61.360;-149.532;2023-07-31T05:40:12;99944.76;;;21.36;54.14
60267;BME280;46125;61.360;-149.532;2023-07-31T05:42:40;99946.79;;;21.84;53.49
60267;BME280;46125;61.360;-149.532;2023-07-31T05:45:09;99946.73;;;21.38;54.10
60267;BME280;46125;61.360;-149.532;2023-07-31T05:47:38;99947.26;;;21.90;53.88
60267;BME280;46125;61.360;-149.532;2023-07-31T05:50:07;99948.33;;;21.75;54.05
60267;BME280;46125;61.360;-149.532;2023-07-31T05:52:35;99946.91;;;21.16;54.28
60267;BME280;46125;61.360;-149.532;2023-07-31T05:55:04;99944.22;;;21.44;54.24
60267;BME280;46125;61.360;-149.532;2023-07-31T05:57:37;99946.36;;;21.66;53.98
60267;BME280;46125;61.360;-149.532;2023-07-31T06:00:07;99944.58;;;21.57;54.07
60267;BME280;46125;61.360;-149.532;2023-07-31T06:02:35;99944.20;;;21.55;54.12
60267;BME280;46125;61.360;-149.532;2023-07-31T06:05:04;99949.42;;;21.30;54.07
60267;BME280;46125;61.360;-149.532;2023-07-31T06:07:33;99947.86;;;21.49;53.94
60267;BME280;46125;61.360;-149.532;2023-07-31T06:10:02;99945.86;;;21.38;54.40
60267;BME280;46125;61.360;-149.532;2023-07-31T06:12:30;99944.29;;;21.40;54.26
60267;BME280;46125;61.360;-149.532;2023-07-31T06:14:58;99939.94;;;21.33;54.26
60267;BME280;46125;61.360;-149.532;2023-07-31T06:17:27;99943.33;;;21.22;54.65
60267;BME280;46125;61.360;-149.532;2023-07-31T06:19:56;99940.73;;;21.20;54.49
60267;BME280;46125;61.360;-149.532;2023-07-31T06:22:25;99942.19;;;21.30;54.72
60267;BME280;46125;61.360;-149.532;2023-07-31T06:24:54;99943.72;;;21.02;54.52
60267;BME280;46125;61.360;-149.532;2023-07-31T06:27:22;99944.60;;;21.15;54.68
60267;BME280;46125;61.360;-149.532;2023-07-31T06:29:51;99944.43;;;20.81;54.61
60267;BME280;46125;61.360;-149.532;2023-07-31T06:32:19;99945.49;;;20.95;54.78
60267;BME280;46125;61.360;-149.532;2023-07-31T06:34:47;99945.31;;;20.89;54.67
60267;BME280;46125;61.360;-149.532;2023-07-31T06:37:16;99945.18;;;20.83;54.83
60267;BME280;46125;61.360;-149.532;2023-07-31T06:39:44;99944.91;;;20.69;55.11
60267;BME280;46125;61.360;-149.532;2023-07-31T06:42:12;99945.74;;;20.60;55.14
60267;BME280;46125;61.360;-149.532;2023-07-31T06:44:41;99945.38;;;20.53;55.30
60267;BME280;46125;61.360;-149.532;2023-07-31T06:47:09;99947.78;;;20.59;55.65
60267;BME280;46125;61.360;-149.532;2023-07-31T06:49:38;99949.96;;;20.54;55.83
60267;BME280;46125;61.360;-149.532;2023-07-31T06:52:07;99946.68;;;20.46;56.07
60267;BME280;46125;61.360;-149.532;2023-07-31T06:54:36;99950.21;;;20.65;56.15
60267;BME280;46125;61.360;-149.532;2023-07-31T06:57:05;99950.90;;;20.35;56.24
60267;BME280;46125;61.360;-149.532;2023-07-31T06:59:33;99954.19;;;20.54;56.52
60267;BME280;46125;61.360;-149.532;2023-07-31T07:02:03;99953.26;;;20.46;56.57
60267;BME280;46125;61.360;-149.532;2023-07-31T07:04:31;99954.74;;;20.37;56.62
60267;BME280;46125;61.360;-149.532;2023-07-31T07:07:02;99954.28;;;20.30;56.63
60267;BME280;46125;61.360;-149.532;2023-07-31T07:09:31;99954.15;;;19.99;56.68
60267;BME280;46125;61.360;-149.532;2023-07-31T07:11:59;99954.83;;;19.92;56.36
60267;BME280;46125;61.360;-149.532;2023-07-31T07:14:28;99954.21;;;20.06;56.45
60267;BME280;46125;61.360;-149.532;2023-07-31T07:16:56;99955.49;;;19.94;56.83
60267;BME280;46125;61.360;-149.532;2023-07-31T07:19:24;99957.14;;;20.10;56.59
60267;BME280;46125;61.360;-149.532;2023-07-31T07:21:53;99958.31;;;19.82;56.20
60267;BME280;46125;61.360;-149.532;2023-07-31T07:24:22;99966.29;;;19.70;55.67
60267;BME280;46125;61.360;-149.532;2023-07-31T07:26:50;99964.13;;;19.97;56.14
60267;BME280;46125;61.360;-149.532;2023-07-31T07:29:19;99965.63;;;19.35;57.50
60267;BME280;46125;61.360;-149.532;2023-07-31T07:31:47;99967.84;;;19.57;56.97
60267;BME280;46125;61.360;-149.532;2023-07-31T07:34:16;99970.70;;;19.23;56.71
60267;BME280;46125;61.360;-149.532;2023-07-31T07:36:44;99972.11;;;19.31;56.98
60267;BME280;46125;61.360;-149.532;2023-07-31T07:39:13;99973.30;;;19.17;56.92
60267;BME280;46125;61.360;-149.532;2023-07-31T07:41:41;99975.14;;;19.40;56.42
60267;BME280;46125;61.360;-149.532;2023-07-31T07:44:10;99977.46;;;19.23;56.29
60267;BME280;46125;61.360;-149.532;2023-07-31T07:46:38;99980.16;;;19.18;56.33
60267;BME280;46125;61.360;-149.532;2023-07-31T07:49:07;99979.45;;;19.13;56.51
60267;BME280;46125;61.360;-149.532;2023-07-31T07:51:37;99980.53;;;19.09;56.28
60267;BME280;46125;61.360;-149.532;2023-07-31T07:54:07;99978.16;;;19.04;56.28
60267;BME280;46125;61.360;-149.532;2023-07-31T07:56:35;99981.05;;;19.03;56.46
60267;BME280;46125;61.360;-149.532;2023-07-31T07:59:04;99981.54;;;19.25;56.59
60267;BME280;46125;61.360;-149.532;2023-07-31T08:01:32;99986.06;;;18.94;56.47
60267;BME280;46125;61.360;-149.532;2023-07-31T08:04:02;99989.61;;;18.65;56.52
60267;BME280;46125;61.360;-149.532;2023-07-31T08:06:40;99989.67;;;19.13;56.62
60267;BME280;46125;61.360;-149.532;2023-07-31T08:09:14;99996.52;;;18.78;57.04
60267;BME280;46125;61.360;-149.532;2023-07-31T08:11:52;99995.05;;;18.79;56.84
60267;BME280;46125;61.360;-149.532;2023-07-31T08:14:21;99998.49;;;18.73;56.72
60267;BME280;46125;61.360;-149.532;2023-07-31T08:16:49;100000.38;;;18.61;56.62
60267;BME280;46125;61.360;-149.532;2023-07-31T08:19:18;100003.68;;;18.85;56.38
60267;BME280;46125;61.360;-149.532;2023-07-31T08:21:46;100005.30;;;18.76;56.34
60267;BME280;46125;61.360;-149.532;2023-07-31T08:24:16;100011.71;;;18.70;56.40
60267;BME280;46125;61.360;-149.532;2023-07-31T08:26:46;100017.32;;;18.39;56.84
60267;BME280;46125;61.360;-149.532;2023-07-31T08:29:15;100018.64;;;18.59;57.23
60267;BME280;46125;61.360;-149.532;2023-07-31T08:31:43;100018.62;;;18.34;57.02
60267;BME280;46125;61.360;-149.532;2023-07-31T08:34:11;100017.46;;;18.50;57.13
60267;BME280;46125;61.360;-149.532;2023-07-31T08:36:40;100019.84;;;18.52;57.05
60267;BME280;46125;61.360;-149.532;2023-07-31T08:39:08;100018.19;;;18.17;57.22
60267;BME280;46125;61.360;-149.532;2023-07-31T08:41:38;100018.45;;;18.40;57.48
60267;BME280;46125;61.360;-149.532;2023-07-31T08:44:08;100018.84;;;18.08;57.71
60267;BME280;46125;61.360;-149.532;2023-07-31T08:46:38;100017.50;;;18.32;57.63
60267;BME280;46125;61.360;-149.532;2023-07-31T08:49:08;100018.02;;;18.32;57.57
60267;BME280;46125;61.360;-149.532;2023-07-31T08:51:37;100022.34;;;18.48;57.50
60267;BME280;46125;61.360;-149.532;2023-07-31T08:54:16;100022.70;;;18.21;57.51
60267;BME280;46125;61.360;-149.532;2023-07-31T08:56:45;100022.95;;;18.19;57.47
60267;BME280;46125;61.360;-149.532;2023-07-31T08:59:15;100022.93;;;18.16;57.49
60267;BME280;46125;61.360;-149.532;2023-07-31T09:01:50;100022.48;;;18.38;57.35
60267;BME280;46125;61.360;-149.532;2023-07-31T09:04:22;100020.67;;;18.30;57.33
60267;BME280;46125;61.360;-149.532;2023-07-31T09:06:50;100018.69;;;18.27;57.17
60267;BME280;46125;61.360;-149.532;2023-07-31T09:09:22;100020.63;;;17.76;58.93
60267;BME280;46125;61.360;-149.532;2023-07-31T09:11:51;100020.88;;;18.14;58.32
60267;BME280;46125;61.360;-149.532;2023-07-31T09:14:27;100025.67;;;18.20;58.85
60267;BME280;46125;61.360;-149.532;2023-07-31T09:16:57;100022.76;;;17.98;58.73
60267;BME280;46125;61.360;-149.532;2023-07-31T09:19:29;100029.44;;;18.07;58.54
60267;BME280;46125;61.360;-149.532;2023-07-31T09:21:57;100028.21;;;17.40;60.38
60267;BME280;46125;61.360;-149.532;2023-07-31T09:24:27;100028.70;;;17.38;61.09
60267;BME280;46125;61.360;-149.532;2023-07-31T09:26:57;100031.01;;;17.51;59.88
60267;BME280;46125;61.360;-149.532;2023-07-31T09:29:26;100032.66;;;17.71;59.48
60267;BME280;46125;61.360;-149.532;2023-07-31T09:31:56;100034.68;;;17.79;59.54
60267;BME280;46125;61.360;-149.532;2023-07-31T09:34:36;100036.54;;;17.88;59.44
60267;BME280;46125;61.360;-149.532;2023-07-31T09:37:06;100037.02;;;17.71;59.10
60267;BME280;46125;61.360;-149.532;2023-07-31T09:39:51;100037.88;;;17.90;59.07
60267;BME280;46125;61.360;-149.532;2023-07-31T09:42:26;100039.02;;;17.98;58.93
60267;BME280;46125;61.360;-149.532;2023-07-31T09:44:54;100040.24;;;18.01;58.97
60267;BME280;46125;61.360;-149.532;2023-07-31T09:47:34;100041.06;;;17.99;59.01
60267;BME280;46125;61.360;-149.532;2023-07-31T09:50:08;100042.22;;;17.88;59.40
60267;BME280;46125;61.360;-149.532;2023-07-31T09:52:39;100041.73;;;17.89;59.39
60267;BME280;46125;61.360;-149.532;2023-07-31T09:55:08;100040.37;;;17.94;59.44
60267;BME280;46125;61.360;-149.532;2023-07-31T09:57:40;100042.11;;;17.82;59.51
60267;BME280;46125;61.360;-149.532;2023-07-31T10:00:09;100045.19;;;18.06;59.73
60267;BME280;46125;61.360;-149.532;2023-07-31T10:02:39;100048.08;;;18.20;59.51
60267;BME280;46125;61.360;-149.532;2023-07-31T10:05:09;100049.34;;;18.03;59.52
60267;BME280;46125;61.360;-149.532;2023-07-31T10:07:43;100047.34;;;18.11;59.43
60267;BME280;46125;61.360;-149.532;2023-07-31T10:10:24;100046.62;;;18.16;59.54
60267;BME280;46125;61.360;-149.532;2023-07-31T10:12:53;100045.35;;;18.21;59.72
60267;BME280;46125;61.360;-149.532;2023-07-31T10:15:22;100048.74;;;18.54;59.52
60267;BME280;46125;61.360;-149.532;2023-07-31T10:17:55;100050.88;;;18.63;59.38
60267;BME280;46125;61.360;-149.532;2023-07-31T10:20:25;100052.20;;;18.41;59.42
60267;BME280;46125;61.360;-149.532;2023-07-31T10:22:55;100052.28;;;18.45;59.52
60267;BME280;46125;61.360;-149.532;2023-07-31T10:25:25;100052.67;;;18.53;59.53
60267;BME280;46125;61.360;-149.532;2023-07-31T10:27:55;100054.30;;;18.62;59.51
60267;BME280;46125;61.360;-149.532;2023-07-31T10:30:28;100054.87;;;18.46;59.51
60267;BME280;46125;61.360;-149.532;2023-07-31T10:32:57;100055.23;;;18.73;59.66
60267;BME280;46125;61.360;-149.532;2023-07-31T10:35:28;100057.80;;;18.24;59.73
60267;BME280;46125;61.360;-149.532;2023-07-31T10:38:10;100061.83;;;18.84;59.88
60267;BME280;46125;61.360;-149.532;2023-07-31T10:40:38;100059.97;;;18.44;60.33
60267;BME280;46125;61.360;-149.532;2023-07-31T10:43:07;100060.89;;;18.53;60.24
60267;BME280;46125;61.360;-149.532;2023-07-31T10:45:37;100060.54;;;18.38;59.77
60267;BME280;46125;61.360;-149.532;2023-07-31T10:48:07;100060.93;;;18.46;59.37
60267;BME280;46125;61.360;-149.532;2023-07-31T10:50:48;100062.41;;;18.73;59.14
60267;BME280;46125;61.360;-149.532;2023-07-31T10:53:30;100065.01;;;18.74;58.93
60267;BME280;46125;61.360;-149.532;2023-07-31T10:56:00;100066.72;;;18.46;58.76
60267;BME280;46125;61.360;-149.532;2023-07-31T10:58:28;100067.91;;;18.42;58.86
60267;BME280;46125;61.360;-149.532;2023-07-31T11:00:58;100068.48;;;18.68;58.79
60267;BME280;46125;61.360;-149.532;2023-07-31T11:03:40;100070.13;;;18.37;58.77
60267;BME280;46125;61.360;-149.532;2023-07-31T11:06:09;100071.60;;;18.32;58.71
60267;BME280;46125;61.360;-149.532;2023-07-31T11:08:43;100074.84;;;18.44;59.04
60267;BME280;46125;61.360;-149.532;2023-07-31T11:11:13;100076.22;;;18.46;58.93
60267;BME280;46125;61.360;-149.532;2023-07-31T11:13:43;100078.73;;;18.42;59.28
60267;BME280;46125;61.360;-149.532;2023-07-31T11:16:13;100082.96;;;18.42;59.32
60267;BME280;46125;61.360;-149.532;2023-07-31T11:18:42;100081.46;;;18.16;59.09
60267;BME280;46125;61.360;-149.532;2023-07-31T11:21:14;100085.43;;;18.16;59.06
60267;BME280;46125;61.360;-149.532;2023-07-31T11:23:46;100080.43;;;18.69;58.91
60267;BME280;46125;61.360;-149.532;2023-07-31T11:26:15;100081.62;;;18.69;58.99
60267;BME280;46125;61.360;-149.532;2023-07-31T11:28:47;100078.85;;;18.73;59.05
60267;BME280;46125;61.360;-149.532;2023-07-31T11:31:16;100080.90;;;18.28;59.16
60267;BME280;46125;61.360;-149.532;2023-07-31T11:33:45;100079.19;;;18.34;59.24
60267;BME280;46125;61.360;-149.532;2023-07-31T11:36:15;100080.03;;;18.42;59.23
60267;BME280;46125;61.360;-149.532;2023-07-31T11:38:44;100076.24;;;18.53;59.29
60267;BME280;46125;61.360;-149.532;2023-07-31T11:41:15;100077.97;;;18.69;59.28
60267;BME280;46125;61.360;-149.532;2023-07-31T11:43:44;100080.18;;;19.05;59.38
60267;BME280;46125;61.360;-149.532;2023-07-31T11:46:14;100081.77;;;18.91;59.38
60267;BME280;46125;61.360;-149.532;2023-07-31T11:48:42;100080.91;;;19.04;59.39
60267;BME280;46125;61.360;-149.532;2023-07-31T11:51:12;100080.77;;;19.17;59.30
60267;BME280;46125;61.360;-149.532;2023-07-31T11:53:44;100082.21;;;19.27;59.19
60267;BME280;46125;61.360;-149.532;2023-07-31T11:56:16;100081.09;;;19.35;59.17
60267;BME280;46125;61.360;-149.532;2023-07-31T11:58:48;100084.81;;;18.99;59.24
60267;BME280;46125;61.360;-149.532;2023-07-31T12:01:19;100085.32;;;19.08;59.48
60267;BME280;46125;61.360;-149.532;2023-07-31T12:03:50;100086.37;;;19.62;59.65
60267;BME280;46125;61.360;-149.532;2023-07-31T12:06:19;100087.70;;;19.22;59.96
60267;BME280;46125;61.360;-149.532;2023-07-31T12:08:47;100089.90;;;19.69;59.99
60267;BME280;46125;61.360;-149.532;2023-07-31T12:11:16;100088.55;;;19.75;59.99
60267;BME280;46125;61.360;-149.532;2023-07-31T12:13:44;100089.54;;;19.82;59.82
60267;BME280;46125;61.360;-149.532;2023-07-31T12:16:12;100088.18;;;19.57;59.72
60267;BME280;46125;61.360;-149.532;2023-07-31T12:18:41;100087.35;;;19.84;59.33
60267;BME280;46125;61.360;-149.532;2023-07-31T12:21:10;100087.27;;;19.57;59.78
60267;BME280;46125;61.360;-149.532;2023-07-31T12:23:38;100085.29;;;19.02;60.14
60267;BME280;46125;61.360;-149.532;2023-07-31T12:26:08;100085.67;;;19.47;59.69
60267;BME280;46125;61.360;-149.532;2023-07-31T12:28:39;100084.44;;;19.34;59.49
60267;BME280;46125;61.360;-149.532;2023-07-31T12:31:11;100087.18;;;19.39;59.05
60267;BME280;46125;61.360;-149.532;2023-07-31T12:33:41;100086.96;;;19.72;59.29
60267;BME280;46125;61.360;-149.532;2023-07-31T12:36:11;100088.47;;;19.60;59.16
60267;BME280;46125;61.360;-149.532;2023-07-31T12:38:40;100090.11;;;19.66;59.11